Time;durP1;ratioP1;P1;durP2;ratioP2;P2;SDS_P1;SDS_P2;PMS_P1;PMS_P2;Temp;Humidity;BMP_temperature;BMP_pressure;BME280_temperature;BME280_humidity;BME280_pressure;Samples;Min_cycle;Max_cycle;Signal;HPM_P1;HPM_P2
2022/03/16 00:01:34;;;;;;;4.18;1.63;;;;;;;-148.56;100.00;61375.16;5050887;28;20068;-30
2022/03/16 00:04:58;;;;;;;5.65;1.88;;;;;;;-148.56;100.00;61375.16;5052781;28;20620;-29
2022/03/16 00:08:22;;;;;;;3.35;1.90;;;;;;;-148.56;100.00;61375.16;5051872;28;20024;-29
2022/03/16 00:11:27;;;;;;;2.25;1.63;;;;;;;-148.56;100.00;61375.16;5052270;28;20047;-29
2022/03/16 00:14:50;;;;;;;3.50;1.70;;;;;;;-148.56;100.00;61375.16;5049721;28;20021;-28
2022/03/16 00:18:13;;;;;;;2.33;1.75;;;;;;;-148.56;100.00;61375.16;5049972;28;20032;-29
2022/03/16 00:21:33;;;;;;;3.22;1.67;;;;;;;-148.56;100.00;61375.16;5052652;28;20675;-29
2022/03/16 00:24:58;;;;;;;3.08;1.70;;;;;;;-148.56;100.00;61375.16;5052411;28;22448;-29
2022/03/16 00:28:20;;;;;;;3.20;1.50;;;;;;;-148.56;100.00;61375.16;5049399;28;20024;-30
2022/03/16 00:31:44;;;;;;;3.72;1.70;;;;;;;-148.56;100.00;61375.16;5052018;28;20024;-27
2022/03/16 00:35:07;;;;;;;2.38;1.52;;;;;;;-148.56;100.00;61375.16;5049763;28;20043;-32
2022/03/16 00:38:30;;;;;;;2.40;1.52;;;;;;;-148.56;100.00;61375.16;5050227;28;20036;-33
2022/03/16 00:41:47;;;;;;;2.65;1.52;;;;;;;-148.56;100.00;61375.16;5052555;28;20123;-32
2022/03/16 00:45:05;;;;;;;2.13;1.50;;;;;;;-148.56;100.00;61375.16;5048682;28;20042;-29
2022/03/16 00:47:35;;;;;;;1.63;1.27;;;;;;;-148.56;100.00;61375.16;5051138;28;20085;-29
2022/03/16 00:50:59;;;;;;;2.33;1.20;;;;;;;-148.56;100.00;61375.16;5052940;28;21858;-28
2022/03/16 00:54:22;;;;;;;1.52;1.15;;;;;;;-148.56;100.00;61375.16;5050655;28;20060;-28
2022/03/16 00:57:46;;;;;;;2.42;1.50;;;;;;;-148.56;100.00;61375.16;5049639;28;20033;-29
2022/03/16 01:01:09;;;;;;;3.35;1.60;;;;;;;-148.56;100.00;61375.16;5050045;28;20111;-28
2022/03/16 01:04:33;;;;;;;1.90;1.30;;;;;;;-148.56;100.00;61375.16;5050311;28;20135;-29
2022/03/16 01:07:56;;;;;;;2.17;1.48;;;;;;;-148.56;100.00;61375.16;5050544;28;20062;-28
2022/03/16 01:11:20;;;;;;;2.65;1.40;;;;;;;-148.56;100.00;61375.16;5049863;28;20028;-31
2022/03/16 01:14:44;;;;;;;1.35;1.25;;;;;;;-148.56;100.00;61375.16;5047722;28;20038;-29
2022/03/16 01:18:07;;;;;;;1.80;1.25;;;;;;;-148.56;100.00;61375.16;5049506;28;20166;-30
2022/03/16 01:21:31;;;;;;;1.60;1.20;;;;;;;-148.56;100.00;61375.16;5049221;28;20028;-37
2022/03/16 01:24:54;;;;;;;1.33;1.15;;;;;;;-148.56;100.00;61375.16;5057803;28;20123;-29
2022/03/16 01:28:17;;;;;;;2.63;1.60;;;;;;;-148.56;100.00;61375.16;5057530;28;20036;-29
2022/03/16 01:31:40;;;;;;;1.60;1.27;;;;;;;-148.56;100.00;61375.16;5058219;28;20036;-31
2022/03/16 01:35:04;;;;;;;2.45;1.35;;;;;;;-148.56;100.00;61375.16;5057257;28;20697;-30
2022/03/16 01:38:28;;;;;;;2.50;1.15;;;;;;;-148.56;100.00;61375.16;5058597;28;20111;-28
2022/03/16 01:41:52;;;;;;;1.50;1.10;;;;;;;-148.56;100.00;61375.16;5057761;28;20502;-30
2022/03/16 01:45:16;;;;;;;1.85;1.20;;;;;;;-148.56;100.00;61375.16;5056230;28;20379;-29
2022/03/16 01:48:40;;;;;;;1.63;1.20;;;;;;;-148.56;100.00;61375.16;5059146;28;20056;-28
2022/03/16 01:52:04;;;;;;;2.05;1.20;;;;;;;-148.56;100.00;61375.16;5060235;28;20021;-26
2022/03/16 01:55:28;;;;;;;1.52;0.95;;;;;;;-148.56;100.00;61375.16;5052344;28;20033;-29
2022/03/16 01:58:51;;;;;;;3.40;1.45;;;;;;;-148.56;100.00;61375.16;5049619;28;20020;-30
2022/03/16 02:02:11;;;;;;;1.30;1.10;;;;;;;-148.56;100.00;61375.16;5050079;28;20043;-29
2022/03/16 02:05:00;;;;;;;1.50;1.10;;;;;;;-148.56;100.00;61375.16;5047865;28;20124;-31
2022/03/16 02:07:47;;;;;;;2.20;1.08;;;;;;;-148.56;100.00;61375.16;5043374;28;20032;-29
2022/03/16 02:10:41;;;;;;;2.30;1.20;;;;;;;-148.56;100.00;61375.16;5048702;28;20031;-29
2022/03/16 02:13:11;;;;;;;1.88;1.20;;;;;;;-148.56;100.00;61375.16;5049063;28;20024;-28
2022/03/16 02:15:37;;;;;;;1.55;1.10;;;;;;;-148.56;100.00;61375.16;5045776;28;20037;-26
2022/03/16 02:18:05;;;;;;;1.98;1.30;;;;;;;-148.56;100.00;61375.16;5051002;28;20186;-27
2022/03/16 02:20:31;;;;;;;1.30;1.08;;;;;;;-148.56;100.00;61375.16;5049896;28;20028;-29
2022/03/16 02:23:29;;;;;;;1.73;1.35;;;;;;;-148.56;100.00;61375.16;5050686;28;20078;-32
2022/03/16 02:26:06;;;;;;;2.05;1.02;;;;;;;-148.56;100.00;61375.16;5047767;28;20031;-28
2022/03/16 02:29:15;;;;;;;1.08;0.85;;;;;;;-148.56;100.00;61375.16;5050944;28;20263;-27
2022/03/16 02:32:08;;;;;;;1.85;1.15;;;;;;;-148.56;100.00;61375.16;5050561;28;20131;-30
2022/03/16 02:34:33;;;;;;;1.23;0.95;;;;;;;-148.56;100.00;61375.16;5051908;28;20032;-31
2022/03/16 02:37:23;;;;;;;0.90;0.80;;;;;;;-148.56;100.00;61375.16;5054209;28;20082;-27
2022/03/16 02:39:50;;;;;;;1.38;1.10;;;;;;;-148.56;100.00;61375.16;5053577;28;20320;-29
2022/03/16 02:42:15;;;;;;;1.70;1.23;;;;;;;-148.56;100.00;61375.16;5053124;28;20039;-28
2022/03/16 02:44:56;;;;;;;1.42;0.90;;;;;;;-148.56;100.00;61375.16;5053931;28;20051;-31
2022/03/16 02:48:03;;;;;;;0.90;0.82;;;;;;;-148.56;100.00;61375.16;5053407;28;20182;-30
2022/03/16 02:51:26;;;;;;;1.17;1.00;;;;;;;-148.56;100.00;61375.16;5053995;28;20082;-32
2022/03/16 02:54:49;;;;;;;1.25;0.93;;;;;;;-148.56;100.00;61375.16;5050282;28;20048;-31
2022/03/16 02:58:13;;;;;;;2.42;1.00;;;;;;;-148.56;100.00;61375.16;5052732;28;20462;-32
2022/03/16 03:01:36;;;;;;;0.90;0.90;;;;;;;-148.56;100.00;61375.16;5052844;28;20127;-32
2022/03/16 03:05:00;;;;;;;1.00;0.73;;;;;;;-148.56;100.00;61375.16;5052784;28;20071;-29
2022/03/16 03:08:23;;;;;;;1.17;0.80;;;;;;;-148.56;100.00;61375.16;5053239;28;20410;-31
2022/03/16 03:11:46;;;;;;;1.55;1.00;;;;;;;-148.56;100.00;61375.16;5053429;28;20034;-28
2022/03/16 03:15:14;;;;;;;2.45;0.90;;;;;;;-148.56;100.00;61375.16;5053354;28;20112;-30
2022/03/16 03:18:30;;;;;;;0.95;0.65;;;;;;;-148.56;100.00;61375.16;5052251;28;20137;-28
2022/03/16 03:21:53;;;;;;;1.67;1.00;;;;;;;-148.56;100.00;61375.16;5051660;28;20062;-32
2022/03/16 03:25:09;;;;;;;1.20;1.00;;;;;;;-148.56;100.00;61375.16;5052440;28;20028;-28
2022/03/16 03:28:33;;;;;;;0.93;0.82;;;;;;;-148.56;100.00;61375.16;5050264;28;20786;-31
2022/03/16 03:31:55;;;;;;;1.27;0.93;;;;;;;-148.56;100.00;61375.16;5054393;28;20062;-27
2022/03/16 03:35:18;;;;;;;1.20;0.88;;;;;;;-148.56;100.00;61375.16;5054116;28;20534;-27
2022/03/16 03:38:41;;;;;;;1.73;0.98;;;;;;;-148.56;100.00;61375.16;5052219;28;20561;-32
2022/03/16 03:42:05;;;;;;;1.10;0.80;;;;;;;-148.56;100.00;61375.16;5050643;28;20120;-29
2022/03/16 03:45:28;;;;;;;1.60;0.80;;;;;;;-148.56;100.00;61375.16;5048428;28;20038;-29
2022/03/16 03:48:52;;;;;;;2.05;0.82;;;;;;;-148.56;100.00;61375.16;5052009;28;20036;-28
2022/03/16 03:52:15;;;;;;;1.33;0.90;;;;;;;-148.56;100.00;61375.16;5049124;28;20028;-30
2022/03/16 03:55:39;;;;;;;1.20;0.88;;;;;;;-148.56;100.00;61375.16;5050900;28;20031;-30
2022/03/16 03:59:03;;;;;;;0.85;0.77;;;;;;;-148.56;100.00;61375.16;5053778;28;20028;-29
2022/03/16 04:02:06;;;;;;;1.15;0.90;;;;;;;-148.56;100.00;61375.16;5051452;28;20119;-29
2022/03/16 04:05:30;;;;;;;1.00;0.90;;;;;;;-148.56;100.00;61375.16;5050871;28;20112;-30
2022/03/16 04:08:48;;;;;;;1.75;0.93;;;;;;;-148.56;100.00;61375.16;5052148;28;20495;-32
2022/03/16 04:12:12;;;;;;;1.38;0.95;;;;;;;-148.56;100.00;61375.16;5050563;28;20046;-32
2022/03/16 04:15:35;;;;;;;1.17;0.70;;;;;;;-148.56;100.00;61375.16;5052666;28;20033;-32
2022/03/16 04:18:59;;;;;;;0.70;0.70;;;;;;;-148.56;100.00;61375.16;5049882;28;20773;-31
2022/03/16 04:22:26;;;;;;;1.60;0.80;;;;;;;-148.56;100.00;61375.16;5051465;28;20029;-29
2022/03/16 04:25:50;;;;;;;1.10;0.77;;;;;;;-148.56;100.00;61375.16;5051083;28;20039;-29
2022/03/16 04:29:14;;;;;;;1.23;0.88;;;;;;;-148.56;100.00;61375.16;5050906;28;20047;-32
2022/03/16 04:32:38;;;;;;;3.53;1.00;;;;;;;-148.56;100.00;61375.16;5050697;28;20293;-28
2022/03/16 04:36:02;;;;;;;1.23;0.80;;;;;;;-148.56;100.00;61375.16;5049650;28;20021;-29
2022/03/16 04:39:26;;;;;;;2.70;1.02;;;;;;;-148.56;100.00;61375.16;5050707;28;20146;-28
2022/03/16 04:42:49;;;;;;;1.23;0.95;;;;;;;-148.56;100.00;61375.16;5049786;28;20027;-28
2022/03/16 04:46:12;;;;;;;1.10;1.00;;;;;;;-148.56;100.00;61375.16;5048101;28;20051;-29
2022/03/16 04:49:36;;;;;;;1.38;0.98;;;;;;;-148.56;100.00;61375.16;5052257;28;20776;-28
2022/03/16 04:53:00;;;;;;;2.30;0.90;;;;;;;-148.56;100.00;61375.16;5052075;28;20997;-29
2022/03/16 04:56:23;;;;;;;0.98;0.82;;;;;;;-148.56;100.00;61375.16;5048209;28;20028;-26
2022/03/16 04:59:47;;;;;;;1.55;0.90;;;;;;;-148.56;100.00;61375.16;5052736;28;20275;-30
2022/03/16 05:03:10;;;;;;;1.08;0.90;;;;;;;-148.56;100.00;61375.16;5054246;28;20074;-30
2022/03/16 05:06:34;;;;;;;1.35;0.77;;;;;;;-148.56;100.00;61375.16;5050436;28;20462;-29
2022/03/16 05:09:58;;;;;;;1.48;1.02;;;;;;;-148.56;100.00;61375.16;5057028;28;20064;-30
2022/03/16 05:13:21;;;;;;;1.23;0.77;;;;;;;-148.56;100.00;61375.16;5058595;28;20144;-28
2022/03/16 05:16:45;;;;;;;1.42;0.88;;;;;;;-148.56;100.00;61375.16;5058557;28;20025;-29
2022/03/16 05:20:09;;;;;;;1.67;1.10;;;;;;;-148.56;100.00;61375.16;5060228;28;20533;-31
2022/03/16 05:23:48;;;;;;;1.13;0.90;;;;;;;-148.56;100.00;61375.16;5057924;28;20063;-29
2022/03/16 05:27:12;;;;;;;1.27;0.90;;;;;;;-148.56;100.00;61375.16;5057700;28;20043;-29
2022/03/16 05:30:36;;;;;;;1.80;0.85;;;;;;;-148.56;100.00;61375.16;5060179;28;20033;-29
2022/03/16 05:34:00;;;;;;;1.33;0.82;;;;;;;-148.56;100.00;61375.16;5055219;28;20024;-29
2022/03/16 05:37:23;;;;;;;1.17;1.00;;;;;;;-148.56;100.00;61375.16;5057183;28;20593;-29
2022/03/16 05:40:47;;;;;;;1.00;0.80;;;;;;;-148.56;100.00;61375.16;5050371;28;20050;-29
2022/03/16 05:44:11;;;;;;;1.00;0.90;;;;;;;-148.56;100.00;61375.16;5048407;28;20391;-30
2022/03/16 05:47:35;;;;;;;1.05;0.82;;;;;;;-148.56;100.00;61375.16;5048638;28;20036;-33
2022/03/16 05:50:58;;;;;;;1.40;0.80;;;;;;;-148.56;100.00;61375.16;5051021;28;20071;-30
2022/03/16 05:54:05;;;;;;;1.30;0.95;;;;;;;-148.56;100.00;61375.16;5049812;28;20067;-31
2022/03/16 05:57:20;;;;;;;1.05;0.77;;;;;;;-148.56;100.00;61375.16;5049191;28;20051;-30
2022/03/16 06:00:42;;;;;;;1.52;0.88;;;;;;;-148.56;100.00;61375.16;5050029;28;20033;-29
2022/03/16 06:03:49;;;;;;;;;;;;;;;-148.56;100.00;61375.16;5049932;28;20032;-32
2022/03/16 06:07:11;;;;;;;0.70;0.70;;;;;;;-148.56;100.00;61375.16;5050860;28;20040;-35
2022/03/16 06:10:35;;;;;;;1.30;0.90;;;;;;;-148.56;100.00;61375.16;5047761;28;20040;-33
2022/03/16 06:13:59;;;;;;;2.42;0.90;;;;;;;-148.56;100.00;61375.16;5050163;28;20032;-26
2022/03/16 06:17:23;;;;;;;1.25;0.95;;;;;;;-148.56;100.00;61375.16;5051890;28;20024;-35
2022/03/16 06:20:46;;;;;;;0.85;0.77;;;;;;;-148.56;100.00;61375.16;5053696;28;20090;-35
2022/03/16 06:24:11;;;;;;;2.63;0.90;;;;;;;-148.56;100.00;61375.16;5056342;28;20058;-35
2022/03/16 06:27:35;;;;;;;1.73;1.20;;;;;;;-148.56;100.00;61375.16;5058350;28;20523;-35
2022/03/16 06:30:58;;;;;;;1.33;0.80;;;;;;;-148.56;100.00;61375.16;5062060;28;20040;-29
2022/03/16 06:34:22;;;;;;;0.82;0.77;;;;;;;-148.56;100.00;61375.16;5058129;28;20090;-30
2022/03/16 06:37:45;;;;;;;1.50;1.08;;;;;;;-148.56;100.00;61375.16;5056199;28;20174;-29
2022/03/16 06:41:09;;;;;;;1.40;0.98;;;;;;;-148.56;100.00;61375.16;5050311;28;20035;-31
2022/03/16 06:44:33;;;;;;;1.75;1.00;;;;;;;-148.56;100.00;61375.16;5050060;28;20039;-31
2022/03/16 06:47:57;;;;;;;2.25;1.40;;;;;;;-148.56;100.00;61375.16;5046783;28;20051;-30
2022/03/16 06:51:21;;;;;;;2.15;1.80;;;;;;;-148.56;100.00;61375.16;5048541;28;20032;-28
2022/03/16 06:54:44;;;;;;;5.93;2.22;;;;;;;-148.56;100.00;61375.16;5047475;28;20113;-31
2022/03/16 06:58:08;;;;;;;2.70;2.15;;;;;;;-148.56;100.00;61375.16;5051528;28;20415;-30
2022/03/16 07:01:31;;;;;;;5.65;2.38;;;;;;;-148.56;100.00;61375.16;5047684;28;20366;-28
2022/03/16 07:04:54;;;;;;;4.25;1.70;;;;;;;-148.56;100.00;61375.16;5042150;28;20550;-31
2022/03/16 07:08:18;;;;;;;5.45;2.13;;;;;;;-148.56;100.00;61375.16;5035335;28;20040;-29
2022/03/16 07:11:41;;;;;;;7.63;1.95;;;;;;;-148.56;100.00;61375.16;5029645;28;20040;-28
2022/03/16 07:15:05;;;;;;;3.58;2.10;;;;;;;-148.56;100.00;61375.16;5028261;28;20040;-29
2022/03/16 07:18:29;;;;;;;3.58;2.05;;;;;;;-148.56;100.00;61375.16;5031733;28;20029;-27
2022/03/16 07:21:52;;;;;;;5.97;2.92;;;;;;;-148.56;100.00;61375.16;5031917;28;20153;-29
2022/03/16 07:25:17;;;;;;;5.00;2.95;;;;;;;-148.56;100.00;61375.16;5050067;28;20036;-33
2022/03/16 07:28:40;;;;;;;8.50;3.17;;;;;;;-148.56;100.00;61375.16;5052744;28;20036;-31
2022/03/16 07:32:04;;;;;;;6.50;3.22;;;;;;;-148.56;100.00;61375.16;5051446;28;20024;-31
2022/03/16 07:35:28;;;;;;;6.68;3.47;;;;;;;-148.56;100.00;61375.16;5057224;28;20064;-28
2022/03/16 07:38:52;;;;;;;8.15;3.13;;;;;;;-148.56;100.00;61375.16;5051442;28;20171;-28
2022/03/16 07:42:16;;;;;;;5.63;2.85;;;;;;;-148.56;100.00;61375.16;5047659;28;20071;-33
2022/03/16 07:45:40;;;;;;;7.93;3.95;;;;;;;-148.56;100.00;61375.16;5047016;28;20101;-29
2022/03/16 07:49:04;;;;;;;12.60;4.22;;;;;;;-148.56;100.00;61375.16;5049504;28;20403;-29
2022/03/16 07:52:27;;;;;;;11.75;3.80;;;;;;;-148.56;100.00;61375.16;5046600;28;20029;-31
2022/03/16 07:55:55;;;;;;;6.28;3.70;;;;;;;-148.56;100.00;61375.16;5049723;28;20045;-30
2022/03/16 07:59:19;;;;;;;6.78;3.40;;;;;;;-148.56;100.00;61375.16;5049964;28;20036;-28
2022/03/16 08:02:43;;;;;;;5.53;3.10;;;;;;;-148.56;100.00;61375.16;5050480;28;20032;-30
2022/03/16 08:06:07;;;;;;;5.93;2.92;;;;;;;-148.56;100.00;61375.16;5051544;28;20024;-28
2022/03/16 08:09:31;;;;;;;7.53;3.15;;;;;;;-148.56;100.00;61375.16;5047046;28;20028;-30
2022/03/16 08:12:54;;;;;;;8.32;3.15;;;;;;;-148.56;100.00;61375.16;5050191;28;20095;-30
2022/03/16 08:16:18;;;;;;;8.10;3.08;;;;;;;-148.56;100.00;61375.16;5050884;28;20398;-31
2022/03/16 08:19:42;;;;;;;9.68;2.92;;;;;;;-148.56;100.00;61375.16;5049365;28;20108;-31
2022/03/16 08:23:06;;;;;;;10.15;3.30;;;;;;;-148.56;100.00;61375.16;5027310;28;20054;-32
2022/03/16 08:26:30;;;;;;;6.20;2.90;;;;;;;-148.56;100.00;61375.16;5010057;28;20069;-29
2022/03/16 08:29:54;;;;;;;7.45;3.28;;;;;;;-148.56;100.00;61375.16;5011245;28;20124;-31
2022/03/16 08:33:18;;;;;;;7.35;3.17;;;;;;;-148.56;100.00;61375.16;5015902;28;20029;-30
2022/03/16 08:36:42;;;;;;;5.10;3.00;;;;;;;-148.56;100.00;61375.16;5030220;28;20333;-29
2022/03/16 08:39:58;;;;;;;6.47;2.90;;;;;;;-148.56;100.00;61375.16;5013198;28;20029;-25
2022/03/16 08:43:20;;;;;;;6.80;3.22;;;;;;;-148.56;100.00;61375.16;5017085;28;20404;-27
2022/03/16 08:45:47;;;;;;;4.47;2.50;;;;;;;-148.56;100.00;61375.16;5014809;28;20217;-31
2022/03/16 08:49:11;;;;;;;5.53;2.40;;;;;;;-148.56;100.00;61375.16;5014788;28;20119;-26
2022/03/16 08:52:16;;;;;;;7.88;2.90;;;;;;;-148.56;100.00;61375.16;5015075;28;20037;-27
2022/03/16 08:55:16;;;;;;;32.47;6.05;;;;;;;-148.56;100.00;61375.16;5020547;28;20168;-26
2022/03/16 08:58:40;;;;;;;30.48;25.75;;;;;;;-148.56;100.00;61375.16;5014503;28;20032;-28
2022/03/16 09:02:05;;;;;;;28.02;23.73;;;;;;;-148.56;100.00;61375.16;5015580;28;20040;-28
2022/03/16 09:05:28;;;;;;;27.10;20.90;;;;;;;-148.56;100.00;61375.16;5007147;28;22230;-25
2022/03/16 09:07:57;;;;;;;21.00;15.73;;;;;;;-148.56;100.00;61375.16;5006753;28;20040;-24
2022/03/16 09:10:23;;;;;;;18.10;13.80;;;;;;;-148.56;100.00;61375.16;5009360;28;21115;-24
2022/03/16 09:13:47;;;;;;;16.60;12.73;;;;;;;-148.56;100.00;61375.16;5005572;28;20735;-25
2022/03/16 09:17:12;;;;;;;11.88;9.75;;;;;;;-148.56;100.00;61375.16;5005163;28;20040;-27
2022/03/16 09:20:37;;;;;;;13.82;8.90;;;;;;;-148.56;100.00;61375.16;5007864;28;21813;-24
2022/03/16 09:23:56;;;;;;;12.38;7.90;;;;;;;-148.56;100.00;61375.16;5049659;28;20034;-28
2022/03/16 09:27:22;;;;;;;8.82;6.85;;;;;;;-148.56;100.00;61375.16;5046289;28;20136;-27
2022/03/16 09:30:45;;;;;;;10.98;6.25;;;;;;;-148.56;100.00;61375.16;5049304;28;20024;-30
2022/03/16 09:34:09;;;;;;;14.35;6.20;;;;;;;-148.56;100.00;61375.16;5057585;28;20040;-30
2022/03/16 09:37:05;;;;;;;10.30;5.50;;;;;;;-148.56;100.00;61375.16;5049215;28;20097;-28
2022/03/16 09:40:28;;;;;;;7.93;5.45;;;;;;;-148.56;100.00;61375.16;5046739;28;20094;-25
2022/03/16 09:43:50;;;;;;;12.38;5.43;;;;;;;-148.56;100.00;61375.16;5052039;28;20028;-31
2022/03/16 09:47:14;;;;;;;10.60;4.87;;;;;;;-148.56;100.00;61375.16;5044969;28;20036;-30
2022/03/16 09:50:39;;;;;;;11.60;4.70;;;;;;;-148.56;100.00;61375.16;5044895;28;22015;-27
2022/03/16 09:54:03;;;;;;;7.80;4.53;;;;;;;-148.56;100.00;61375.16;5043964;28;20582;-31
2022/03/16 09:57:27;;;;;;;11.60;4.90;;;;;;;-148.56;100.00;61375.16;5042049;28;21840;-27
2022/03/16 10:00:53;;;;;;;10.38;4.15;;;;;;;-148.56;100.00;61375.16;5049044;28;20032;-29
2022/03/16 10:04:33;;;;;;;8.27;3.97;;;;;;;-148.56;100.00;61375.16;5042002;28;20036;-28
2022/03/16 10:07:29;;;;;;;7.35;4.65;;;;;;;-148.56;100.00;61375.16;5042305;28;20148;-26
2022/03/16 10:14:45;;;;;;;6.18;4.03;;;;;;;-148.56;100.00;61375.16;5048682;28;20035;-28
2022/03/16 10:18:09;;;;;;;6.32;3.60;;;;;;;-148.56;100.00;61375.16;5049189;28;20826;-26
2022/03/16 10:21:33;;;;;;;6.55;3.83;;;;;;;-148.56;100.00;61375.16;5051186;28;20082;-29
2022/03/16 10:25:01;;;;;;;5.95;3.80;;;;;;;-148.56;100.00;61375.16;5049537;28;20037;-25
2022/03/16 10:28:26;;;;;;;5.25;3.58;;;;;;;-148.56;100.00;61375.16;5051007;28;20059;-27
2022/03/16 10:32:02;;;;;;;5.15;3.70;;;;;;;-148.56;100.00;61375.16;5047564;28;20040;-27
2022/03/16 10:35:26;;;;;;;6.65;3.53;;;;;;;-148.56;100.00;61375.16;5050980;28;20028;-29
2022/03/16 10:38:51;;;;;;;7.15;3.50;;;;;;;-148.56;100.00;61375.16;5047793;28;20712;-26
2022/03/16 17:25:14;;;;;;;12.88;9.65;;;;;;;27.50;24.74;97130.69;4983013;28;20214;-33
2022/03/16 17:27:44;;;;;;;13.20;10.68;;;;;;;27.46;23.51;97121.25;4991881;28;20156;-31
2022/03/16 17:30:14;;;;;;;14.40;11.15;;;;;;;27.38;23.02;97119.88;4984494;28;20065;-36
2022/03/16 17:32:40;;;;;;;14.05;10.23;;;;;;;27.26;23.32;97124.03;4974522;28;20153;-31
2022/03/16 17:35:09;;;;;;;14.48;8.15;;;;;;;27.16;24.01;97124.59;4962893;28;20161;-31
2022/03/16 17:37:37;;;;;;;11.77;6.40;;;;;;;27.07;24.42;97129.44;4963098;28;20038;-35
2022/03/16 17:40:06;;;;;;;10.18;6.22;;;;;;;27.02;24.24;97126.19;4960981;28;20115;-37
2022/03/16 17:45:31;;;;;;;8.10;4.40;;;;;;;26.99;25.14;97118.47;4956318;28;20572;-36
2022/03/16 17:48:01;;;;;;;6.20;3.75;;;;;;;27.01;25.37;97116.63;4959127;28;20041;-35
2022/03/16 17:50:28;;;;;;;3.58;3.13;;;;;;;27.06;25.58;97119.84;4960416;28;20073;-34
2022/03/16 17:52:53;;;;;;;7.35;3.40;;;;;;;27.11;25.52;97109.06;4956647;28;20033;-36
2022/03/16 17:58:03;;;;;;;6.70;2.92;;;;;;;27.26;25.87;97110.88;4960246;28;20041;-40
2022/03/16 18:00:28;;;;;;;3.90;2.63;;;;;;;27.36;25.88;97105.97;4961097;28;20034;-37
2022/03/16 18:02:54;;;;;;;6.45;2.80;;;;;;;27.44;25.65;97107.31;4960829;28;20035;-32
2022/03/16 18:05:20;;;;;;;5.07;2.40;;;;;;;27.52;25.72;97111.25;4955832;28;20031;-39
2022/03/16 18:07:45;;;;;;;5.10;2.80;;;;;;;27.57;25.64;97103.06;4970935;28;20600;-35
2022/03/16 18:13:01;;;;;;;2.38;2.15;;;;;;;27.76;25.54;97120.50;4978439;28;23171;-34
2022/03/16 18:15:26;;;;;;;4.57;2.20;;;;;;;27.83;25.57;97108.69;4982191;28;20831;-36
2022/03/16 18:17:52;;;;;;;3.35;2.47;;;;;;;27.91;25.61;97110.88;5000983;28;20034;-37
2022/03/16 18:20:17;;;;;;;5.82;2.22;;;;;;;27.97;25.78;97109.69;4983310;28;20093;-40
2022/03/16 18:22:43;;;;;;;3.75;2.42;;;;;;;28.03;25.46;97106.69;4985844;28;20060;-33
2022/03/16 18:25:08;;;;;;;2.38;2.00;;;;;;;28.09;25.82;97105.50;4985444;28;20026;-37
2022/03/16 18:27:38;;;;;;;3.42;2.25;;;;;;;28.12;25.49;97107.97;4983487;28;20064;-36
2022/03/16 18:30:04;;;;;;;3.33;2.10;;;;;;;28.18;25.58;97107.59;4983634;28;20037;-38
2022/03/16 18:32:30;;;;;;;4.65;2.20;;;;;;;28.22;25.53;97103.00;4982858;28;20030;-33
2022/03/16 18:34:58;;;;;;;4.20;2.40;;;;;;;28.26;25.60;97109.84;4977434;28;20035;-38
2022/03/16 18:37:24;;;;;;;3.00;2.10;;;;;;;28.31;25.75;97113.03;5000776;28;20041;-34
2022/03/16 18:39:52;;;;;;;3.95;1.92;;;;;;;28.36;25.60;97110.97;4971347;28;20022;-34
2022/03/16 18:42:18;;;;;;;2.70;2.15;;;;;;;28.41;25.41;97108.06;4965611;28;20036;-38
2022/03/16 18:44:44;;;;;;;4.38;2.33;;;;;;;28.47;25.45;97112.13;4963932;28;20503;-35
2022/03/16 18:47:09;;;;;;;2.83;1.88;;;;;;;28.51;25.34;97113.66;4963106;28;20501;-38
2022/03/16 18:49:34;;;;;;;5.13;2.00;;;;;;;28.55;25.50;97109.88;4960834;28;20030;-36
2022/03/16 18:54:32;;;;;;;4.00;1.98;;;;;;;28.60;25.39;97121.00;4962876;28;20034;-39
2022/03/16 18:56:57;;;;;;;4.07;2.00;;;;;;;28.61;25.69;97114.81;4960467;28;20034;-30
2022/03/16 18:59:23;;;;;;;3.13;1.90;;;;;;;28.62;25.36;97115.63;4959843;28;20030;-36
2022/03/16 19:01:49;;;;;;;4.53;2.03;;;;;;;28.60;24.98;97115.72;4957310;28;20033;-36
2022/03/16 19:04:14;;;;;;;3.92;2.05;;;;;;;28.58;25.37;97112.34;4955382;28;20030;-28
2022/03/16 19:06:41;;;;;;;3.90;2.22;;;;;;;28.54;25.61;97110.84;4965634;28;20080;-37
2022/03/16 19:09:07;;;;;;;3.70;2.00;;;;;;;28.50;25.72;97106.69;4957799;28;20038;-30
2022/03/16 19:14:18;;;;;;;3.13;2.10;;;;;;;28.38;25.60;97105.63;4960987;28;21146;-35
2022/03/16 19:16:48;;;;;;;3.22;1.83;;;;;;;28.30;25.71;97090.28;4960035;28;20432;-31
2022/03/16 19:19:15;;;;;;;2.88;1.70;;;;;;;28.24;25.89;97101.13;4961847;28;20152;-28
2022/03/16 19:21:41;;;;;;;8.70;1.83;;;;;;;28.13;26.16;97092.06;4965216;28;20065;-34
2022/03/16 19:24:06;;;;;;;2.60;1.70;;;;;;;28.09;25.98;97098.44;4964564;28;20031;-35
2022/03/16 19:26:32;;;;;;;3.47;1.85;;;;;;;28.04;26.19;97111.03;4978000;28;20038;-34
2022/03/16 19:28:57;;;;;;;2.63;1.88;;;;;;;27.96;26.54;97110.63;4962965;28;20035;-38
2022/03/16 19:31:24;;;;;;;4.13;1.95;;;;;;;27.86;26.33;97108.53;4963233;28;20037;-34
2022/03/16 19:33:50;;;;;;;3.13;1.67;;;;;;;27.85;26.48;97114.75;4961639;28;20023;-31
2022/03/16 19:42:41;;;;;;;4.15;1.52;;;;;;;27.63;27.23;97118.56;1459799;23;20033;-60
2022/03/16 19:47:35;;;;;;;2.03;1.60;;;;;;;27.54;26.90;97119.06;4991445;28;20049;-33
2022/03/16 19:50:01;;;;;;;1.52;1.42;;;;;;;27.50;27.13;97117.53;4999061;28;20034;-30
2022/03/16 19:52:29;;;;;;;4.75;1.95;;;;;;;27.45;27.49;97127.44;4999756;28;20136;-31
2022/03/16 19:54:55;;;;;;;2.25;1.50;;;;;;;27.41;27.29;97126.75;4994662;28;20045;-30
2022/03/16 19:57:20;;;;;;;4.93;1.75;;;;;;;27.38;27.33;97119.03;4995871;28;20670;-30
2022/03/16 19:59:46;;;;;;;1.80;1.65;;;;;;;27.35;27.45;97124.47;4997196;28;20052;-27
2022/03/16 20:02:11;;;;;;;3.38;1.50;;;;;;;27.31;27.78;97118.50;4996050;28;20933;-26
2022/03/16 20:04:37;;;;;;;4.07;1.40;;;;;;;27.29;27.73;97123.00;4991366;28;20036;-29
2022/03/16 20:07:03;;;;;;;4.15;1.60;;;;;;;27.25;27.88;97114.44;4978322;28;20034;-30
2022/03/16 20:09:28;;;;;;;2.83;1.60;;;;;;;27.24;27.93;97111.91;4989292;28;20134;-32
2022/03/16 20:11:54;;;;;;;3.67;1.80;;;;;;;27.22;28.04;97108.47;4999021;28;20025;-31
2022/03/16 20:14:20;;;;;;;1.83;1.45;;;;;;;27.21;27.70;97104.16;4995925;28;20644;-31
2022/03/16 20:16:45;;;;;;;2.75;1.50;;;;;;;27.17;28.08;97100.84;4995184;28;20068;-29
2022/03/16 20:19:14;;;;;;;1.65;1.27;;;;;;;27.15;27.89;97101.88;4993576;28;20037;-32
2022/03/16 20:21:42;;;;;;;3.83;1.60;;;;;;;27.12;27.92;97103.72;5004351;28;20030;-30
2022/03/16 20:24:07;;;;;;;2.38;1.60;;;;;;;27.11;28.34;97101.16;4999907;28;20414;-29
2022/03/16 20:26:34;;;;;;;2.30;1.52;;;;;;;27.08;27.80;97102.19;4999458;28;20033;-31
2022/03/16 20:28:59;;;;;;;2.42;1.50;;;;;;;27.07;27.86;97105.75;4996602;28;20339;-32
2022/03/16 20:31:25;;;;;;;3.72;1.60;;;;;;;27.05;28.49;97102.38;4998514;28;20033;-31
2022/03/16 20:33:51;;;;;;;2.08;1.20;;;;;;;27.03;28.48;97104.22;4997375;28;20037;-32
2022/03/16 20:36:16;;;;;;;1.88;1.65;;;;;;;27.02;28.53;97102.53;4996647;28;20580;-30
2022/03/16 20:38:45;;;;;;;1.73;1.42;;;;;;;27.02;28.53;97102.53;4996893;28;20560;-32
2022/03/16 20:41:11;;;;;;;3.42;1.25;;;;;;;26.98;28.27;97103.63;4998305;28;20040;-31
2022/03/16 20:43:36;;;;;;;1.65;1.30;;;;;;;26.97;28.41;97109.81;4979813;28;20034;-33
2022/03/16 20:46:02;;;;;;;2.33;1.50;;;;;;;26.95;28.73;97104.63;4995472;28;20048;-30
2022/03/16 20:48:27;;;;;;;3.15;1.77;;;;;;;26.95;28.27;97106.41;4995755;28;20156;-34
2022/03/16 20:50:55;;;;;;;3.47;1.40;;;;;;;26.95;28.27;97106.41;4992736;28;20032;-30
2022/03/16 20:53:22;;;;;;;2.08;1.48;;;;;;;26.95;28.27;97106.41;4997384;28;20076;-30
2022/03/16 20:55:47;;;;;;;2.03;1.42;;;;;;;26.92;28.28;97109.19;4996929;28;20065;-31
2022/03/16 21:00:57;;;;;;;1.40;1.30;;;;;;;26.92;28.28;97109.19;4993278;28;20044;-27
2022/03/16 21:03:23;;;;;;;1.30;1.20;;;;;;;26.88;28.77;97106.72;4994879;28;20029;-29
2022/03/16 21:05:49;;;;;;;2.22;1.40;;;;;;;26.87;28.39;97110.28;4997508;28;20048;-31
2022/03/16 21:08:14;;;;;;;1.20;1.02;;;;;;;26.87;28.39;97110.28;4998817;28;20041;-29